createdAt,value
2023-03-19T00:02:16.580Z,13.59
2023-03-19T00:04:44.098Z,13.51
2023-03-19T00:07:11.236Z,13.52
2023-03-19T00:09:37.849Z,13.46
2023-03-19T00:12:05.181Z,13.46
2023-03-19T00:14:31.789Z,13.37
2023-03-19T00:16:58.447Z,13.45
2023-03-19T00:19:25.275Z,13.48
2023-03-19T00:21:52.218Z,13.39
2023-03-19T00:24:19.068Z,13.44
2023-03-19T00:26:45.707Z,13.39
2023-03-19T00:29:12.755Z,13.40
2023-03-19T00:31:40.651Z,13.37
2023-03-19T00:34:08.167Z,13.26
2023-03-19T00:36:35.557Z,13.28
2023-03-19T00:39:02.156Z,13.20
2023-03-19T00:41:28.928Z,13.20
2023-03-19T00:43:57.328Z,13.17
2023-03-19T00:46:25.519Z,13.11
2023-03-19T00:48:55.438Z,13.15
2023-03-19T00:51:23.605Z,12.96
2023-03-19T00:53:51.060Z,13.01
2023-03-19T00:56:18.301Z,12.99
2023-03-19T00:58:46.677Z,12.94
2023-03-19T01:01:16.769Z,12.86
2023-03-19T01:03:45.026Z,12.76
2023-03-19T01:06:12.150Z,12.75
2023-03-19T01:08:39.240Z,12.65
2023-03-19T01:11:12.907Z,12.66
2023-03-19T01:13:39.629Z,12.66
2023-03-19T01:16:06.974Z,12.54
2023-03-19T01:18:33.671Z,12.63
2023-03-19T01:21:00.818Z,12.52
2023-03-19T01:23:29.352Z,12.39
2023-03-19T01:25:56.958Z,12.18
2023-03-19T01:28:25.172Z,12.08
2023-03-19T01:30:52.337Z,11.94
2023-03-19T01:33:44.812Z,11.90
2023-03-19T01:36:17.727Z,11.87
2023-03-19T01:39:04.816Z,11.87
2023-03-19T01:41:31.877Z,11.89
2023-03-19T01:44:31.524Z,11.83
2023-03-19T01:47:41.785Z,11.90
2023-03-19T01:50:25.875Z,11.94
2023-03-19T01:53:06.714Z,11.94
2023-03-19T01:55:47.213Z,11.92
2023-03-19T01:58:37.596Z,11.88
2023-03-19T02:01:13.604Z,11.86
2023-03-19T02:03:44.942Z,11.98
2023-03-19T02:06:18.889Z,11.93
2023-03-19T02:08:46.747Z,11.90
2023-03-19T02:11:13.860Z,11.97
2023-03-19T02:13:40.475Z,11.92
2023-03-19T02:16:07.554Z,11.97
2023-03-19T02:18:34.607Z,11.93
2023-03-19T02:21:09.826Z,11.93
2023-03-19T02:23:49.838Z,11.92
2023-03-19T02:26:22.060Z,11.86
2023-03-19T02:28:52.620Z,11.87
2023-03-19T02:31:24.820Z,11.76
2023-03-19T02:34:05.996Z,11.75
2023-03-19T02:36:47.325Z,11.73
2023-03-19T02:39:22.685Z,11.73
2023-03-19T02:41:51.940Z,11.69
2023-03-19T02:44:19.984Z,11.71
2023-03-19T02:46:47.452Z,11.58
2023-03-19T02:49:14.095Z,11.59
2023-03-19T02:51:41.884Z,11.57
2023-03-19T02:54:08.824Z,11.60
2023-03-19T02:56:35.583Z,11.53
2023-03-19T02:59:02.248Z,11.58
2023-03-19T03:01:29.962Z,11.58
2023-03-19T03:03:56.561Z,11.65
2023-03-19T03:06:23.258Z,11.65
2023-03-19T03:08:49.833Z,11.71
2023-03-19T03:11:16.450Z,11.67
2023-03-19T03:13:42.985Z,11.68
2023-03-19T03:16:09.662Z,11.76
2023-03-19T03:18:36.720Z,11.73
2023-03-19T03:21:03.552Z,11.73
2023-03-19T03:23:30.134Z,11.72
2023-03-19T03:25:56.675Z,11.71
2023-03-19T03:28:23.288Z,11.62
2023-03-19T03:30:50.371Z,11.61
2023-03-19T03:33:17.357Z,11.61
2023-03-19T03:35:43.937Z,11.59
2023-03-19T03:38:11.373Z,11.62
2023-03-19T03:40:38.089Z,11.58
2023-03-19T03:43:04.769Z,11.70
2023-03-19T03:45:33.545Z,11.74
2023-03-19T03:48:00.670Z,11.79
2023-03-19T03:50:28.190Z,11.78
2023-03-19T03:52:56.988Z,11.95
2023-03-19T03:55:23.559Z,11.98
2023-03-19T03:57:50.150Z,12.01
2023-03-19T04:00:16.943Z,12.07
2023-03-19T04:02:44.680Z,12.19
2023-03-19T04:05:14.709Z,12.22
2023-03-19T04:07:41.411Z,12.33
2023-03-19T04:10:09.591Z,12.36
2023-03-19T04:12:37.880Z,12.34
2023-03-19T04:15:05.924Z,12.38
2023-03-19T04:17:33.050Z,12.41
2023-03-19T04:20:00.016Z,12.46
2023-03-19T04:22:27.282Z,12.56
2023-03-19T04:24:53.936Z,12.53
2023-03-19T04:27:20.956Z,12.56
2023-03-19T04:29:47.558Z,12.58
2023-03-19T04:32:16.694Z,12.60
2023-03-19T04:34:43.421Z,12.62
2023-03-19T04:37:10.335Z,12.71
2023-03-19T04:39:44.422Z,12.75
2023-03-19T04:42:11.458Z,12.70
2023-03-19T04:45:08.236Z,12.72
2023-03-19T04:47:35.640Z,12.85
2023-03-19T04:50:02.806Z,12.82
2023-03-19T04:52:31.849Z,12.95
2023-03-19T04:54:58.375Z,12.95
2023-03-19T04:57:24.891Z,13.04
2023-03-19T04:59:53.870Z,13.03
2023-03-19T05:02:21.941Z,13.06
2023-03-19T05:04:48.621Z,13.18
2023-03-19T05:07:15.461Z,13.17
2023-03-19T05:09:43.920Z,13.21
2023-03-19T05:12:12.279Z,13.36
2023-03-19T05:14:44.062Z,13.28
2023-03-19T05:17:18.428Z,13.35
2023-03-19T05:20:01.447Z,13.51
2023-03-19T05:22:29.805Z,13.58
2023-03-19T05:24:57.726Z,13.57
2023-03-19T05:27:25.040Z,13.53
2023-03-19T05:30:08.269Z,13.57
2023-03-19T05:32:40.901Z,13.72
2023-03-19T05:35:14.352Z,13.80
2023-03-19T05:37:42.493Z,13.95
2023-03-19T05:40:09.915Z,14.07
2023-03-19T05:42:37.861Z,14.27
2023-03-19T05:45:05.386Z,14.36
2023-03-19T05:47:50.152Z,14.44
2023-03-19T05:50:19.167Z,14.40
2023-03-19T05:53:05.676Z,14.39
2023-03-19T05:55:35.244Z,14.65
2023-03-19T05:58:07.655Z,14.70
2023-03-19T06:00:34.523Z,14.80
2023-03-19T06:03:01.480Z,14.85
2023-03-19T06:05:28.132Z,14.83
2023-03-19T06:07:59.458Z,14.90
2023-03-19T06:10:42.325Z,15.05
2023-03-19T06:13:11.289Z,15.08
2023-03-19T06:15:41.058Z,15.24
2023-03-19T06:18:14.158Z,15.39
2023-03-19T06:20:40.812Z,15.18
2023-03-19T06:23:07.972Z,15.40
2023-03-19T06:25:34.554Z,15.49
2023-03-19T06:28:01.100Z,15.33
2023-03-19T06:30:34.283Z,15.35
2023-03-19T06:33:03.901Z,15.48
2023-03-19T06:35:32.255Z,15.53
2023-03-19T06:37:58.935Z,15.36
2023-03-19T06:40:25.535Z,15.70
2023-03-19T06:42:52.304Z,15.65
2023-03-19T06:45:19.389Z,15.39
2023-03-19T06:47:47.546Z,15.33
2023-03-19T06:50:18.911Z,15.71
2023-03-19T06:52:45.903Z,15.70
2023-03-19T06:55:12.599Z,15.60
2023-03-19T06:57:39.245Z,15.50
2023-03-19T07:00:07.521Z,15.75
2023-03-19T07:02:34.107Z,15.43
2023-03-19T07:05:00.628Z,15.38
2023-03-19T07:07:27.280Z,15.81
2023-03-19T07:09:53.863Z,15.85
2023-03-19T07:12:20.758Z,15.88
2023-03-19T07:14:47.327Z,15.73
2023-03-19T07:17:13.903Z,15.80
2023-03-19T07:19:40.671Z,15.88
2023-03-19T07:22:07.759Z,15.79
2023-03-19T07:24:34.329Z,15.87
2023-03-19T07:27:00.847Z,15.86
2023-03-19T07:29:27.373Z,16.14
2023-03-19T07:31:53.925Z,16.21
2023-03-19T07:34:20.467Z,16.27
2023-03-19T07:36:47.301Z,16.11
2023-03-19T07:39:13.854Z,16.26
2023-03-19T07:41:40.694Z,16.18
2023-03-19T07:44:11.206Z,16.35
2023-03-19T07:46:37.751Z,16.19
2023-03-19T07:49:04.264Z,16.40
2023-03-19T07:51:30.897Z,16.49
2023-03-19T07:53:57.443Z,16.59
2023-03-19T07:56:24.064Z,16.63
2023-03-19T07:58:51.655Z,16.75
2023-03-19T08:01:18.616Z,16.81
2023-03-19T08:03:45.192Z,16.89
2023-03-19T08:06:11.780Z,16.85
2023-03-19T08:08:38.398Z,16.84
2023-03-19T08:11:05.221Z,16.97
2023-03-19T08:13:31.815Z,16.91
2023-03-19T08:15:58.495Z,17.09
2023-03-19T08:18:25.071Z,16.98
2023-03-19T08:20:51.629Z,16.71
2023-03-19T08:23:18.423Z,16.90
2023-03-19T08:25:45.373Z,17.00
2023-03-19T08:28:12.459Z,16.85
2023-03-19T08:30:39.561Z,16.87
2023-03-19T08:33:06.773Z,17.07
2023-03-19T08:35:33.388Z,17.06
2023-03-19T08:38:00.112Z,17.26
2023-03-19T08:40:26.944Z,17.00
2023-03-19T08:42:54.341Z,17.02
2023-03-19T08:45:21.102Z,17.18
2023-03-19T08:47:48.193Z,17.13
2023-03-19T08:50:15.882Z,16.88
2023-03-19T08:52:42.450Z,17.36
2023-03-19T08:55:10.520Z,17.46
2023-03-19T08:57:37.369Z,17.31
2023-03-19T09:00:08.220Z,17.57
2023-03-19T09:02:36.128Z,17.75
2023-03-19T09:05:02.791Z,18.00
2023-03-19T09:07:29.451Z,17.41
2023-03-19T09:09:56.114Z,17.89
2023-03-19T09:12:22.646Z,18.00
2023-03-19T09:14:49.714Z,17.90
2023-03-19T09:17:18.079Z,17.70
2023-03-19T09:19:44.725Z,17.67
2023-03-19T09:22:11.300Z,17.84
2023-03-19T09:24:40.475Z,17.68
2023-03-19T09:27:07.420Z,17.84
2023-03-19T09:29:34.282Z,17.49
2023-03-19T09:32:00.912Z,17.25
2023-03-19T09:34:27.798Z,17.02
2023-03-19T09:36:55.012Z,16.97
2023-03-19T09:39:21.552Z,16.93
2023-03-19T09:42:03.914Z,16.86
2023-03-19T09:44:44.157Z,16.97
2023-03-19T09:47:21.279Z,16.87
2023-03-19T09:49:49.089Z,16.86
2023-03-19T09:52:47.972Z,16.62
2023-03-19T09:55:23.505Z,16.74
2023-03-19T09:57:51.298Z,16.60
2023-03-19T10:00:24.587Z,16.70
2023-03-19T10:03:05.300Z,16.76
2023-03-19T10:05:59.644Z,16.90
2023-03-19T10:08:42.758Z,16.72
2023-03-19T10:11:32.485Z,16.92
2023-03-19T10:14:43.314Z,16.95
2023-03-19T10:17:19.562Z,17.04
2023-03-19T10:19:57.648Z,17.21
2023-03-19T10:22:34.781Z,17.36
2023-03-19T10:25:02.749Z,17.66
2023-03-19T10:27:29.633Z,17.76
2023-03-19T10:29:56.715Z,17.91
2023-03-19T10:32:41.896Z,17.75
2023-03-19T10:35:27.440Z,17.34
2023-03-19T10:37:55.218Z,16.84
2023-03-19T10:40:36.227Z,16.99
2023-03-19T10:43:20.958Z,17.08
2023-03-19T10:45:49.094Z,17.13
2023-03-19T10:48:17.746Z,17.17
2023-03-19T10:50:52.855Z,17.01
2023-03-19T10:53:19.307Z,17.47
2023-03-19T10:56:06.447Z,17.91
2023-03-19T10:58:35.766Z,18.19
2023-03-19T11:01:09.625Z,18.67
2023-03-19T11:03:37.817Z,18.98
2023-03-19T11:06:07.801Z,19.57
2023-03-19T11:08:36.997Z,19.93
2023-03-19T11:11:03.998Z,19.65
2023-03-19T11:13:33.552Z,19.81
2023-03-19T11:16:00.868Z,19.85
2023-03-19T11:18:30.331Z,20.15
2023-03-19T11:21:25.052Z,20.41
2023-03-19T11:23:59.388Z,20.25
2023-03-19T11:26:28.575Z,20.47
2023-03-19T11:29:02.292Z,20.31
2023-03-19T11:31:47.930Z,20.62
2023-03-19T11:34:27.834Z,20.78
2023-03-19T11:37:12.992Z,20.69
2023-03-19T11:40:03.341Z,20.54
2023-03-19T11:42:46.497Z,20.36
2023-03-19T11:45:22.876Z,20.35
2023-03-19T11:48:27.174Z,20.00
2023-03-19T11:51:12.302Z,20.31
2023-03-19T11:54:22.065Z,20.45
2023-03-19T11:56:55.618Z,20.42
2023-03-19T11:59:43.666Z,20.29
2023-03-19T12:02:37.825Z,20.46
2023-03-19T12:05:18.978Z,20.37
2023-03-19T12:07:57.859Z,20.25
2023-03-19T12:10:59.084Z,20.36
2023-03-19T12:13:39.328Z,20.64
2023-03-19T12:16:30.875Z,21.15
2023-03-19T12:19:26.987Z,23.50
2023-03-19T12:22:06.573Z,24.99
2023-03-19T12:24:40.003Z,25.43
2023-03-19T12:27:33.640Z,26.54
2023-03-19T12:30:17.059Z,27.21
2023-03-19T12:33:11.548Z,27.59
2023-03-19T12:35:41.023Z,27.84
2023-03-19T12:38:45.421Z,26.94
2023-03-19T12:41:29.565Z,25.70
2023-03-19T12:44:06.220Z,25.02
2023-03-19T12:46:38.994Z,24.40
2023-03-19T12:49:11.545Z,24.12
2023-03-19T12:51:45.455Z,23.57
2023-03-19T12:54:28.878Z,23.51
2023-03-19T12:57:12.208Z,23.45
2023-03-19T13:00:10.291Z,23.40
2023-03-19T13:02:44.181Z,23.23
2023-03-19T13:05:32.428Z,23.15
2023-03-19T13:08:12.057Z,23.04
2023-03-19T13:10:39.018Z,22.84
2023-03-19T13:13:36.495Z,22.79
2023-03-19T13:16:18.849Z,22.58
2023-03-19T13:19:10.388Z,22.38
2023-03-19T13:21:39.791Z,22.02
2023-03-19T13:24:27.700Z,21.81
2023-03-19T13:26:56.326Z,21.12
2023-03-19T13:29:31.639Z,20.59
2023-03-19T13:32:25.566Z,20.53
2023-03-19T13:35:28.512Z,20.48
2023-03-19T13:38:20.525Z,20.52
2023-03-19T13:40:52.982Z,20.55
2023-03-19T13:43:40.873Z,20.69
2023-03-19T13:46:13.421Z,20.78
2023-03-19T13:48:45.908Z,20.83
2023-03-19T13:51:12.376Z,20.90
2023-03-19T13:54:23.765Z,20.96
2023-03-19T13:57:01.216Z,20.92
2023-03-19T13:59:33.373Z,21.10
2023-03-19T14:02:02.119Z,21.23
2023-03-19T14:04:32.233Z,21.86
2023-03-19T14:07:15.943Z,22.62
2023-03-19T14:09:45.843Z,23.08
2023-03-19T14:12:29.844Z,23.03
2023-03-19T14:15:08.007Z,24.01
2023-03-19T14:17:38.292Z,25.06
2023-03-19T14:20:12.573Z,26.03
2023-03-19T14:23:08.700Z,26.01
2023-03-19T14:26:05.748Z,24.30
2023-03-19T14:28:44.570Z,23.70
2023-03-19T14:31:26.622Z,23.62
2023-03-19T14:33:59.581Z,23.57
2023-03-19T14:36:28.343Z,23.66
2023-03-19T14:39:08.900Z,26.66
2023-03-19T14:41:43.230Z,29.12
2023-03-19T14:44:22.956Z,30.94
2023-03-19T14:46:58.730Z,32.16
2023-03-19T14:49:51.721Z,32.01
2023-03-19T14:52:59.723Z,33.17
2023-03-19T14:55:35.784Z,33.76
2023-03-19T14:58:02.901Z,33.15
2023-03-19T15:00:37.247Z,32.59
2023-03-19T15:03:03.764Z,32.05
2023-03-19T15:05:36.684Z,30.65
2023-03-19T15:08:07.281Z,30.73
2023-03-19T15:11:02.464Z,30.89
2023-03-19T15:13:35.248Z,30.77
2023-03-19T15:16:24.842Z,30.43
2023-03-19T15:18:51.621Z,29.18
2023-03-19T15:21:18.802Z,28.16
2023-03-19T15:23:46.822Z,27.41
2023-03-19T15:26:13.638Z,26.95
2023-03-19T15:28:49.268Z,26.28
2023-03-19T15:31:31.702Z,25.75
2023-03-19T15:34:21.076Z,25.24
2023-03-19T15:37:01.200Z,24.93
2023-03-19T15:39:33.467Z,24.67
2023-03-19T15:42:02.090Z,24.48
2023-03-19T15:44:33.814Z,24.34
2023-03-19T15:47:03.677Z,24.08
2023-03-19T15:49:37.257Z,23.90
2023-03-19T15:52:08.400Z,23.67
2023-03-19T15:54:35.360Z,23.45
2023-03-19T15:57:02.066Z,23.18
2023-03-19T15:59:31.418Z,22.90
2023-03-19T16:02:01.237Z,22.65
2023-03-19T16:04:30.229Z,22.46
2023-03-19T16:06:58.701Z,22.34
2023-03-19T16:09:29.713Z,22.13
2023-03-19T16:11:57.085Z,22.01
2023-03-19T16:14:29.650Z,21.88
2023-03-19T16:17:02.282Z,21.77
2023-03-19T16:19:37.683Z,21.67
2023-03-19T16:22:31.408Z,21.58
2023-03-19T16:24:59.133Z,21.38
2023-03-19T16:27:39.842Z,21.15
2023-03-19T16:30:21.356Z,20.98
2023-03-19T16:32:59.248Z,20.88
2023-03-19T16:35:28.051Z,20.80
2023-03-19T16:37:54.996Z,20.75
2023-03-19T16:40:21.450Z,20.65
2023-03-19T16:42:50.888Z,20.61
2023-03-19T16:45:22.089Z,20.53
2023-03-19T16:47:54.090Z,20.43
2023-03-19T16:50:22.985Z,20.44
2023-03-19T16:52:50.031Z,20.29
2023-03-19T16:55:28.489Z,20.14
2023-03-19T16:58:11.466Z,20.05
2023-03-19T17:00:38.861Z,19.99
2023-03-19T17:03:12.364Z,19.88
2023-03-19T17:05:38.943Z,19.77
2023-03-19T17:08:05.560Z,19.73
2023-03-19T17:10:33.367Z,19.61
2023-03-19T17:13:00.818Z,19.51
2023-03-19T17:15:37.124Z,19.41
2023-03-19T17:18:12.841Z,19.32
2023-03-19T17:20:49.515Z,19.22
2023-03-19T17:23:16.210Z,19.16
2023-03-19T17:25:43.751Z,19.13
2023-03-19T17:28:10.281Z,19.04
2023-03-19T17:30:38.298Z,19.02
2023-03-19T17:33:05.549Z,18.99
2023-03-19T17:35:33.940Z,18.84
2023-03-19T17:38:00.717Z,18.78
2023-03-19T17:40:27.986Z,18.67
2023-03-19T17:42:55.838Z,18.59
2023-03-19T17:45:29.566Z,18.47
2023-03-19T17:47:58.390Z,18.37
2023-03-19T17:50:31.386Z,18.23
2023-03-19T17:52:58.545Z,18.17
2023-03-19T17:55:28.027Z,18.03
2023-03-19T17:57:55.943Z,18.01
2023-03-19T18:00:24.566Z,17.91
2023-03-19T18:02:53.978Z,17.81
2023-03-19T18:05:23.519Z,17.73
2023-03-19T18:07:53.383Z,17.67
2023-03-19T18:10:30.178Z,17.66
2023-03-19T18:12:59.902Z,17.49
2023-03-19T18:15:28.777Z,17.42
2023-03-19T18:17:56.977Z,17.32
2023-03-19T18:20:28.062Z,17.27
2023-03-19T18:22:54.650Z,17.24
2023-03-19T18:25:23.802Z,17.22
2023-03-19T18:27:50.901Z,17.18
2023-03-19T18:30:21.598Z,17.10
2023-03-19T18:32:52.585Z,17.08
2023-03-19T18:35:24.497Z,17.04
2023-03-19T18:37:52.103Z,16.99
2023-03-19T18:40:30.175Z,17.10
2023-03-19T18:42:57.290Z,17.05
2023-03-19T18:45:28.466Z,17.01
2023-03-19T18:47:56.846Z,16.97
2023-03-19T18:50:32.411Z,16.88
2023-03-19T18:52:58.980Z,16.84
2023-03-19T18:55:30.363Z,16.80
2023-03-19T18:58:02.785Z,16.85
2023-03-19T19:00:32.186Z,16.88
2023-03-19T19:03:00.471Z,16.87
2023-03-19T19:05:29.650Z,16.88
2023-03-19T19:08:01.693Z,16.89
2023-03-19T19:10:34.461Z,16.83
2023-03-19T19:13:02.143Z,16.87
2023-03-19T19:15:36.311Z,16.88
2023-03-19T19:18:23.435Z,16.90
2023-03-19T19:20:52.444Z,16.84
2023-03-19T19:23:20.563Z,16.83
2023-03-19T19:25:50.756Z,16.80
2023-03-19T19:28:21.588Z,16.72
2023-03-19T19:30:49.533Z,16.68
2023-03-19T19:33:20.269Z,16.65
2023-03-19T19:35:46.966Z,16.51
2023-03-19T19:38:13.588Z,16.46
2023-03-19T19:40:42.999Z,15.93
2023-03-19T19:43:22.759Z,15.99
2023-03-19T19:45:52.694Z,16.05
2023-03-19T19:48:25.498Z,16.17
2023-03-19T19:50:53.117Z,16.24
2023-03-19T19:53:20.566Z,16.38
2023-03-19T19:55:47.764Z,16.49
2023-03-19T19:58:32.450Z,16.63
2023-03-19T20:01:03.728Z,16.71
2023-03-19T20:03:33.060Z,16.74
2023-03-19T20:06:01.861Z,16.61
2023-03-19T20:08:28.801Z,16.58
2023-03-19T20:10:56.881Z,16.66
2023-03-19T20:13:35.291Z,16.83
2023-03-19T20:16:02.691Z,16.88
2023-03-19T20:18:32.739Z,16.92
2023-03-19T20:20:59.602Z,16.91
2023-03-19T20:23:26.574Z,16.92
2023-03-19T20:25:53.650Z,16.92
2023-03-19T20:28:33.953Z,16.98
2023-03-19T20:31:01.520Z,16.71
2023-03-19T20:33:31.095Z,16.92
2023-03-19T20:35:58.454Z,16.85
2023-03-19T20:38:27.086Z,16.91
2023-03-19T20:40:56.398Z,16.85
2023-03-19T20:43:33.305Z,16.86
2023-03-19T20:46:04.314Z,16.70
2023-03-19T20:48:32.046Z,16.75
2023-03-19T20:51:00.012Z,16.37
2023-03-19T20:53:26.987Z,15.70
2023-03-19T20:55:54.006Z,15.72
2023-03-19T20:58:30.762Z,15.58
2023-03-19T21:00:58.552Z,15.70
2023-03-19T21:03:27.689Z,15.60
2023-03-19T21:06:21.690Z,15.03
2023-03-19T21:08:53.214Z,15.04
2023-03-19T21:11:29.205Z,15.20
2023-03-19T21:13:55.773Z,14.95
2023-03-19T21:16:25.511Z,15.05
2023-03-19T21:18:53.853Z,14.79
2023-03-19T21:21:34.406Z,14.77
2023-03-19T21:24:15.489Z,14.85
2023-03-19T21:26:42.846Z,14.77
2023-03-19T21:29:28.911Z,14.39
2023-03-19T21:31:56.688Z,14.66
2023-03-19T21:34:23.566Z,14.65
2023-03-19T21:36:50.797Z,14.71
2023-03-19T21:39:17.775Z,14.63
2023-03-19T21:41:46.215Z,14.78
2023-03-19T21:44:16.539Z,14.79
2023-03-19T21:46:46.400Z,14.51
2023-03-19T21:49:13.014Z,14.69
2023-03-19T21:51:39.663Z,14.59
2023-03-19T21:54:06.179Z,14.68
2023-03-19T21:56:38.974Z,14.80
2023-03-19T21:59:19.087Z,14.75
2023-03-19T22:01:46.594Z,14.69
2023-03-19T22:04:13.279Z,14.77
2023-03-19T22:06:40.244Z,14.53
2023-03-19T22:09:06.809Z,14.59
2023-03-19T22:11:36.691Z,14.79
2023-03-19T22:14:14.232Z,14.79
2023-03-19T22:16:40.935Z,14.75
2023-03-19T22:19:11.953Z,14.89
2023-03-19T22:21:38.470Z,14.94
2023-03-19T22:24:05.257Z,15.01
2023-03-19T22:26:34.604Z,15.06
2023-03-19T22:29:04.796Z,15.07
2023-03-19T22:31:32.367Z,15.12
2023-03-19T22:33:59.221Z,15.19
2023-03-19T22:36:25.950Z,15.20
2023-03-19T22:38:52.480Z,15.26
2023-03-19T22:41:29.044Z,15.24
2023-03-19T22:43:57.050Z,15.24
2023-03-19T22:46:24.981Z,15.31
2023-03-19T22:48:52.117Z,15.28
2023-03-19T22:51:21.602Z,15.32
2023-03-19T22:53:48.535Z,15.40
2023-03-19T22:56:16.420Z,15.38
2023-03-19T22:58:43.649Z,15.38
2023-03-19T23:01:28.775Z,15.30
2023-03-19T23:03:56.212Z,15.28
2023-03-19T23:06:30.690Z,15.26
2023-03-19T23:08:58.046Z,15.33
2023-03-19T23:11:24.783Z,15.29
2023-03-19T23:13:51.707Z,15.32
2023-03-19T23:16:23.876Z,15.32
2023-03-19T23:18:51.664Z,15.27
2023-03-19T23:21:19.675Z,15.31
2023-03-19T23:23:46.816Z,15.27
2023-03-19T23:26:29.151Z,15.24
2023-03-19T23:29:06.503Z,15.22
2023-03-19T23:31:34.895Z,15.22
2023-03-19T23:34:01.600Z,15.10
2023-03-19T23:36:28.176Z,15.16
2023-03-19T23:38:54.697Z,15.18
2023-03-19T23:41:24.941Z,15.10
2023-03-19T23:43:52.907Z,15.12
2023-03-19T23:46:20.133Z,15.14
2023-03-19T23:48:46.802Z,15.13
2023-03-19T23:51:14.902Z,15.17
2023-03-19T23:53:42.349Z,15.12
2023-03-19T23:56:18.461Z,15.10
2023-03-19T23:58:47.176Z,15.14
